createdAt,value
2022-08-05T00:02:23.411Z,28.10
2022-08-05T00:04:55.257Z,28.00
2022-08-05T00:07:59.058Z,27.90
2022-08-05T00:10:11.718Z,27.90
2022-08-05T00:12:55.817Z,27.80
2022-08-05T00:15:54.969Z,27.90
2022-08-05T00:18:21.858Z,27.90
2022-08-05T00:20:52.030Z,27.90
2022-08-05T00:23:44.650Z,27.90
2022-08-05T00:26:09.913Z,27.90
2022-08-05T00:28:39.672Z,27.90
2022-08-05T00:31:08.355Z,27.90
2022-08-05T00:34:53.547Z,27.80
2022-08-05T00:37:13.040Z,27.80
2022-08-05T00:39:16.034Z,27.80
2022-08-05T00:41:52.053Z,27.80
2022-08-05T00:44:30.880Z,27.80
2022-08-05T00:47:01.925Z,27.70
2022-08-05T00:49:32.835Z,27.70
2022-08-05T00:52:14.026Z,27.70
2022-08-05T00:54:45.413Z,27.70
2022-08-05T00:57:13.477Z,27.60
2022-08-05T00:59:44.334Z,27.60
2022-08-05T01:02:12.805Z,27.60
2022-08-05T01:04:44.569Z,27.60
2022-08-05T01:07:19.693Z,27.60
2022-08-05T01:09:55.689Z,27.60
2022-08-05T01:12:29.712Z,27.60
2022-08-05T01:15:03.855Z,27.50
2022-08-05T01:17:44.053Z,27.60
2022-08-05T01:20:25.558Z,27.50
2022-08-05T01:23:14.942Z,27.50
2022-08-05T01:25:55.829Z,27.50
2022-08-05T01:28:34.302Z,27.40
2022-08-05T01:31:08.403Z,27.40
2022-08-05T01:33:43.015Z,27.30
2022-08-05T01:36:21.056Z,27.40
2022-08-05T01:39:01.181Z,27.50
2022-08-05T01:41:33.580Z,27.50
2022-08-05T01:44:06.816Z,27.50
2022-08-05T01:46:42.061Z,27.50
2022-08-05T01:49:24.338Z,27.40
2022-08-05T01:51:58.103Z,27.40
2022-08-05T01:54:29.949Z,27.30
2022-08-05T01:58:12.246Z,27.30
2022-08-05T01:59:52.520Z,27.30
2022-08-05T02:02:28.101Z,27.30
2022-08-05T02:05:00.940Z,27.40
2022-08-05T02:07:31.472Z,27.40
2022-08-05T02:10:00.384Z,27.30
2022-08-05T02:12:38.200Z,27.30
2022-08-05T02:15:13.527Z,27.30
2022-08-05T02:18:31.380Z,27.30
2022-08-05T02:20:48.561Z,27.30
2022-08-05T02:23:20.524Z,27.30
2022-08-05T02:25:50.720Z,27.30
2022-08-05T02:28:29.177Z,27.30
2022-08-05T02:31:04.027Z,27.30
2022-08-05T02:33:38.316Z,27.30
2022-08-05T02:36:09.787Z,27.30
2022-08-05T02:38:43.299Z,27.30
2022-08-05T02:41:17.221Z,27.30
2022-08-05T02:44:02.263Z,27.20
2022-08-05T02:46:53.779Z,27.20
2022-08-05T02:49:35.966Z,27.20
2022-08-05T02:52:08.817Z,27.20
2022-08-05T02:54:41.283Z,27.20
2022-08-05T02:58:10.734Z,27.20
2022-08-05T03:00:00.476Z,27.20
2022-08-05T03:02:35.269Z,27.10
2022-08-05T03:05:04.283Z,27.10
2022-08-05T03:08:00.316Z,27.10
2022-08-05T03:10:24.843Z,27.10
2022-08-05T03:12:54.159Z,27.10
2022-08-05T03:15:23.302Z,27.10
2022-08-05T03:17:55.823Z,27.10
2022-08-05T03:20:25.542Z,27.10
2022-08-05T03:22:57.622Z,27.00
2022-08-05T03:25:32.809Z,27.00
2022-08-05T03:28:18.761Z,27.00
2022-08-05T03:30:49.314Z,27.00
2022-08-05T03:33:19.334Z,27.00
2022-08-05T03:35:48.224Z,26.90
2022-08-05T03:38:23.902Z,26.90
2022-08-05T03:41:08.482Z,26.90
2022-08-05T03:44:10.042Z,26.90
2022-08-05T03:46:29.734Z,26.90
2022-08-05T03:49:02.067Z,26.80
2022-08-05T03:52:48.303Z,26.80
2022-08-05T03:55:50.694Z,26.70
2022-08-05T03:57:29.009Z,26.60
2022-08-05T04:00:12.461Z,26.70
2022-08-05T04:02:57.956Z,26.60
2022-08-05T04:05:33.674Z,26.60
2022-08-05T04:08:30.040Z,26.60
2022-08-05T04:10:54.487Z,26.60
2022-08-05T04:13:22.901Z,26.60
2022-08-05T04:16:03.353Z,26.50
2022-08-05T04:18:34.517Z,26.60
2022-08-05T04:21:05.356Z,26.50
2022-08-05T04:24:00.208Z,26.50
2022-08-05T04:26:23.460Z,26.50
2022-08-05T04:28:52.126Z,26.40
2022-08-05T04:31:20.318Z,26.40
2022-08-05T04:33:54.352Z,26.30
2022-08-05T04:36:45.845Z,26.30
2022-08-05T04:39:18.155Z,26.20
2022-08-05T04:41:46.307Z,26.20
2022-08-05T04:44:16.258Z,26.20
2022-08-05T04:46:56.906Z,26.10
2022-08-05T04:49:38.337Z,26.00
2022-08-05T04:52:08.517Z,26.00
2022-08-05T04:54:36.384Z,25.90
2022-08-05T04:57:04.539Z,25.90
2022-08-05T04:59:38.290Z,25.80
2022-08-05T05:02:36.595Z,25.80
2022-08-05T05:05:01.729Z,25.80
2022-08-05T05:07:31.905Z,25.80
2022-08-05T05:10:04.347Z,25.80
2022-08-05T05:12:32.369Z,25.80
2022-08-05T05:15:03.698Z,25.80
2022-08-05T05:17:56.566Z,25.70
2022-08-05T05:20:28.284Z,25.70
2022-08-05T05:22:58.793Z,25.70
2022-08-05T05:25:40.390Z,25.70
2022-08-05T05:28:08.807Z,25.70
2022-08-05T05:30:37.606Z,25.70
2022-08-05T05:33:15.880Z,25.70
2022-08-05T05:35:46.700Z,25.70
2022-08-05T05:38:22.901Z,25.70
2022-08-05T05:40:55.977Z,25.70
2022-08-05T05:43:57.597Z,25.60
2022-08-05T05:46:16.097Z,25.60
2022-08-05T05:48:47.846Z,25.60
2022-08-05T05:51:20.523Z,25.70
2022-08-05T05:53:57.747Z,25.60
2022-08-05T05:56:33.021Z,25.60
2022-08-05T05:59:05.098Z,25.60
2022-08-05T06:01:37.923Z,25.60
2022-08-05T06:04:08.173Z,25.60
2022-08-05T06:06:36.295Z,25.70
2022-08-05T06:09:07.686Z,25.60
2022-08-05T06:11:39.363Z,25.60
2022-08-05T06:14:07.639Z,25.60
2022-08-05T06:16:37.250Z,25.60
2022-08-05T06:19:07.422Z,25.60
2022-08-05T06:21:38.803Z,25.60
2022-08-05T06:24:12.689Z,25.60
2022-08-05T06:26:51.213Z,25.60
2022-08-05T06:29:25.286Z,25.60
2022-08-05T06:32:26.263Z,25.60
2022-08-05T06:34:58.404Z,25.60
2022-08-05T06:37:56.818Z,25.60
2022-08-05T06:40:18.449Z,25.60
2022-08-05T06:42:52.320Z,25.60
2022-08-05T06:45:44.507Z,25.60
2022-08-05T06:48:36.928Z,25.60
2022-08-05T06:50:58.349Z,25.60
2022-08-05T06:53:29.185Z,25.60
2022-08-05T06:55:59.495Z,25.60
2022-08-05T06:58:35.266Z,25.60
2022-08-05T07:01:06.082Z,25.60
2022-08-05T07:03:34.778Z,25.60
2022-08-05T07:06:05.955Z,25.60
2022-08-05T07:08:42.886Z,25.60
2022-08-05T07:11:17.199Z,25.60
2022-08-05T07:14:07.940Z,25.70
2022-08-05T07:18:09.381Z,25.70
2022-08-05T07:22:35.279Z,25.70
2022-08-05T07:25:23.376Z,25.70
2022-08-05T07:27:58.098Z,25.70
2022-08-05T07:30:33.329Z,25.70
2022-08-05T07:33:05.510Z,25.70
2022-08-05T07:36:04.594Z,25.80
2022-08-05T07:38:32.515Z,25.80
2022-08-05T07:42:08.920Z,25.80
2022-08-05T07:43:56.067Z,25.90
2022-08-05T07:46:26.208Z,25.90
2022-08-05T07:49:02.294Z,25.90
2022-08-05T07:51:37.079Z,25.90
2022-08-05T07:54:10.378Z,26.00
2022-08-05T07:57:02.036Z,26.10
2022-08-05T07:59:38.094Z,26.10
2022-08-05T08:02:16.134Z,26.20
2022-08-05T08:04:45.866Z,26.20
2022-08-05T08:07:14.071Z,26.20
2022-08-05T08:09:43.152Z,26.30
2022-08-05T08:12:27.371Z,26.30
2022-08-05T08:15:02.538Z,26.30
2022-08-05T08:17:31.687Z,26.40
2022-08-05T08:20:22.840Z,26.50
2022-08-05T08:22:52.394Z,26.50
2022-08-05T08:25:26.390Z,26.60
2022-08-05T08:28:18.368Z,26.60
2022-08-05T08:30:49.972Z,26.70
2022-08-05T08:33:19.787Z,26.70
2022-08-05T08:35:52.449Z,26.80
2022-08-05T08:38:35.689Z,26.90
2022-08-05T08:41:08.290Z,26.90
2022-08-05T08:45:18.597Z,27.00
2022-08-05T08:46:30.409Z,27.00
2022-08-05T08:49:17.487Z,27.10
2022-08-05T08:52:06.079Z,27.10
2022-08-05T08:54:37.914Z,27.10
2022-08-05T08:57:13.310Z,27.10
2022-08-05T08:59:47.419Z,27.10
2022-08-05T09:02:20.937Z,27.20
2022-08-05T09:05:16.752Z,27.20
2022-08-05T09:07:57.800Z,27.20
2022-08-05T09:10:29.495Z,27.30
2022-08-05T09:13:04.924Z,27.30
2022-08-05T09:15:37.185Z,27.30
2022-08-05T09:18:09.183Z,27.30
2022-08-05T09:20:38.398Z,27.40
2022-08-05T09:23:19.850Z,27.40
2022-08-05T09:26:01.755Z,27.40
2022-08-05T09:28:33.856Z,27.40
2022-08-05T09:31:23.417Z,27.50
2022-08-05T09:33:56.620Z,27.50
2022-08-05T09:36:27.689Z,27.50
2022-08-05T09:39:02.894Z,27.60
2022-08-05T09:41:33.171Z,27.60
2022-08-05T09:44:06.797Z,27.60
2022-08-05T09:46:35.699Z,27.70
2022-08-05T09:49:19.216Z,27.80
2022-08-05T09:51:49.414Z,27.80
2022-08-05T09:54:21.350Z,27.80
2022-08-05T09:57:01.460Z,27.90
2022-08-05T09:59:35.055Z,27.90
2022-08-05T10:02:05.530Z,27.90
2022-08-05T10:04:40.847Z,27.90
2022-08-05T10:07:20.741Z,27.90
2022-08-05T10:10:14.325Z,27.80
2022-08-05T10:12:49.848Z,27.90
2022-08-05T10:15:24.249Z,28.00
2022-08-05T10:18:09.547Z,28.00
2022-08-05T10:20:41.636Z,28.10
2022-08-05T10:23:34.048Z,28.10
2022-08-05T10:26:01.653Z,28.10
2022-08-05T10:28:30.770Z,28.10
2022-08-05T10:32:50.894Z,28.20
2022-08-05T10:33:52.329Z,28.30
2022-08-05T10:36:26.005Z,28.30
2022-08-05T10:39:00.108Z,28.30
2022-08-05T10:41:46.513Z,28.30
2022-08-05T10:44:19.896Z,28.30
2022-08-05T10:46:54.265Z,28.30
2022-08-05T10:49:27.540Z,28.40
2022-08-05T10:52:05.587Z,28.40
2022-08-05T10:54:56.263Z,28.40
2022-08-05T10:57:29.446Z,28.40
2022-08-05T11:00:18.562Z,28.50
2022-08-05T11:03:23.448Z,28.60
2022-08-05T11:06:15.674Z,28.80
2022-08-05T11:09:16.572Z,28.70
2022-08-05T11:11:53.290Z,28.60
2022-08-05T11:14:56.343Z,28.70
2022-08-05T11:17:59.554Z,28.80
2022-08-05T11:20:44.249Z,28.90
2022-08-05T11:24:05.377Z,29.00
2022-08-05T11:26:29.133Z,29.00
2022-08-05T11:29:12.170Z,29.10
2022-08-05T11:31:58.537Z,29.20
2022-08-05T11:34:39.664Z,29.20
2022-08-05T11:38:28.065Z,29.30
2022-08-05T11:40:02.670Z,29.30
2022-08-05T11:42:40.311Z,29.30
2022-08-05T11:45:23.548Z,29.30
2022-08-05T11:47:58.827Z,29.40
2022-08-05T11:50:27.285Z,29.50
2022-08-05T11:52:57.990Z,29.50
2022-08-05T11:55:32.110Z,29.60
2022-08-05T11:58:10.615Z,29.60
2022-08-05T12:00:41.131Z,29.70
2022-08-05T12:03:28.746Z,29.70
2022-08-05T12:06:06.017Z,29.80
2022-08-05T12:08:50.036Z,29.80
2022-08-05T12:11:21.003Z,29.80
2022-08-05T12:13:59.518Z,29.80
2022-08-05T12:16:34.524Z,29.80
2022-08-05T12:19:08.386Z,29.80
2022-08-05T12:21:43.857Z,29.70
2022-08-05T12:24:17.322Z,29.70
2022-08-05T12:26:47.919Z,29.70
2022-08-05T12:29:23.027Z,29.70
2022-08-05T12:31:54.345Z,29.70
2022-08-05T12:34:26.640Z,29.70
2022-08-05T12:36:55.504Z,29.70
2022-08-05T12:39:34.265Z,29.70
2022-08-05T12:42:03.450Z,29.70
2022-08-05T12:44:34.286Z,29.70
2022-08-05T12:47:02.526Z,29.80
2022-08-05T12:50:03.669Z,29.70
2022-08-05T12:52:35.371Z,29.70
2022-08-05T12:55:22.483Z,29.70
2022-08-05T12:58:50.149Z,29.70
2022-08-05T13:02:02.287Z,29.70
2022-08-05T13:03:33.528Z,29.70
2022-08-05T13:06:02.480Z,29.60
2022-08-05T13:08:32.387Z,29.60
2022-08-05T13:11:01.830Z,29.70
2022-08-05T13:14:06.089Z,29.60
2022-08-05T13:16:24.976Z,29.60
2022-08-05T13:18:55.103Z,29.50
2022-08-05T13:21:27.916Z,29.40
2022-08-05T13:23:56.545Z,29.40
2022-08-05T13:26:29.863Z,29.40
2022-08-05T13:28:59.133Z,29.30
2022-08-05T13:32:03.198Z,29.30
2022-08-05T13:34:24.964Z,29.30
2022-08-05T13:36:53.818Z,29.30
2022-08-05T13:40:13.067Z,29.30
2022-08-05T13:42:15.135Z,29.30
2022-08-05T13:44:45.852Z,29.30
2022-08-05T13:47:34.890Z,29.40
2022-08-05T13:50:06.825Z,29.30
2022-08-05T13:52:39.422Z,29.30
2022-08-05T13:55:09.961Z,29.20
2022-08-05T13:57:49.049Z,29.10
2022-08-05T14:00:27.293Z,29.10
2022-08-05T14:03:01.209Z,29.10
2022-08-05T14:05:48.518Z,29.10
2022-08-05T14:08:20.738Z,29.10
2022-08-05T14:11:03.119Z,29.10
2022-08-05T14:13:43.139Z,29.00
2022-08-05T14:16:16.703Z,29.00
2022-08-05T14:18:46.690Z,29.00
2022-08-05T14:22:07.257Z,29.00
2022-08-05T14:24:02.711Z,29.00
2022-08-05T14:26:36.969Z,29.00
2022-08-05T14:29:16.251Z,29.00
2022-08-05T14:32:03.209Z,29.10
2022-08-05T14:34:35.008Z,29.20
2022-08-05T14:37:04.275Z,29.20
2022-08-05T14:39:49.750Z,29.30
2022-08-05T14:42:22.896Z,29.30
2022-08-05T14:44:57.093Z,29.30
2022-08-05T14:48:04.070Z,29.30
2022-08-05T14:50:19.164Z,29.30
2022-08-05T14:52:53.502Z,29.30
2022-08-05T14:55:28.540Z,29.30
2022-08-05T14:58:11.056Z,29.30
2022-08-05T15:00:59.840Z,29.30
2022-08-05T15:03:33.849Z,29.30
2022-08-05T15:06:15.519Z,29.30
2022-08-05T15:09:01.073Z,29.30
2022-08-05T15:11:50.884Z,29.30
2022-08-05T15:14:34.491Z,29.20
2022-08-05T15:17:05.267Z,29.20
2022-08-05T15:19:49.164Z,29.20
2022-08-05T15:22:27.379Z,29.20
2022-08-05T15:24:58.316Z,29.10
2022-08-05T15:27:26.386Z,29.10
2022-08-05T15:30:00.425Z,29.00
2022-08-05T15:32:29.036Z,29.00
2022-08-05T15:34:57.123Z,29.00
2022-08-05T15:38:09.230Z,28.90
2022-08-05T15:41:01.805Z,28.90
2022-08-05T15:43:12.554Z,28.80
2022-08-05T15:45:45.774Z,28.80
2022-08-05T15:48:14.773Z,28.80
2022-08-05T15:50:45.566Z,28.80
2022-08-05T15:53:15.500Z,28.80
2022-08-05T15:56:03.936Z,28.80
2022-08-05T15:58:35.785Z,28.80
2022-08-05T16:01:16.899Z,28.80
2022-08-05T16:03:48.529Z,28.70
2022-08-05T16:06:20.427Z,28.60
2022-08-05T16:08:55.232Z,28.50
2022-08-05T16:11:42.521Z,28.40
2022-08-05T16:14:17.205Z,28.30
2022-08-05T16:16:46.256Z,28.30
2022-08-05T16:19:25.650Z,28.20
2022-08-05T16:22:03.644Z,28.10
2022-08-05T16:24:39.998Z,28.00
2022-08-05T16:27:10.121Z,28.00
2022-08-05T16:29:50.084Z,27.90
2022-08-05T16:32:28.393Z,27.90
2022-08-05T16:34:57.457Z,27.80
2022-08-05T16:38:03.148Z,27.80
2022-08-05T16:40:26.709Z,27.80
2022-08-05T16:42:57.044Z,27.70
2022-08-05T16:46:04.278Z,27.70
2022-08-05T16:48:25.918Z,27.70
2022-08-05T16:51:00.726Z,27.60
2022-08-05T16:53:32.470Z,27.50
2022-08-05T16:56:18.315Z,27.50
2022-08-05T16:58:47.719Z,27.40
2022-08-05T17:01:15.756Z,27.30
2022-08-05T17:03:43.691Z,27.30
2022-08-05T17:06:11.586Z,27.20
2022-08-05T17:08:53.627Z,27.20
2022-08-05T17:11:25.748Z,27.10
2022-08-05T17:14:05.865Z,27.10
2022-08-05T17:16:36.829Z,27.20
2022-08-05T17:19:07.696Z,27.10
2022-08-05T17:21:39.438Z,27.10
2022-08-05T17:24:18.482Z,27.10
2022-08-05T17:26:56.845Z,27.10
2022-08-05T17:29:40.069Z,27.10
2022-08-05T17:32:11.957Z,27.10
2022-08-05T17:34:47.819Z,27.00
2022-08-05T17:37:39.668Z,26.90
2022-08-05T17:40:05.842Z,26.90
2022-08-05T17:42:43.202Z,26.90
2022-08-05T17:45:21.045Z,26.90
2022-08-05T17:47:54.043Z,26.80
2022-08-05T17:50:28.358Z,26.70
2022-08-05T17:52:59.833Z,26.70
2022-08-05T17:55:38.350Z,26.60
2022-08-05T17:58:12.843Z,26.50
2022-08-05T18:00:44.997Z,26.40
2022-08-05T18:03:39.381Z,26.30
2022-08-05T18:06:11.513Z,26.30
2022-08-05T18:08:45.014Z,26.10
2022-08-05T18:11:23.411Z,26.00
2022-08-05T18:13:54.440Z,26.00
2022-08-05T18:16:23.497Z,26.00
2022-08-05T18:18:51.467Z,25.90
2022-08-05T18:21:22.908Z,25.90
2022-08-05T18:23:54.617Z,25.90
2022-08-05T18:26:27.485Z,25.80
2022-08-05T18:28:59.555Z,25.70
2022-08-05T18:31:33.874Z,25.70
2022-08-05T18:34:05.758Z,25.60
2022-08-05T18:36:35.379Z,25.60
2022-08-05T18:39:03.526Z,25.60
2022-08-05T18:41:56.291Z,25.50
2022-08-05T18:44:33.384Z,25.40
2022-08-05T18:47:03.707Z,25.40
2022-08-05T18:49:57.241Z,25.40
2022-08-05T18:52:35.678Z,25.40
2022-08-05T18:55:06.542Z,25.40
2022-08-05T18:57:50.170Z,25.30
2022-08-05T19:00:29.169Z,25.20
2022-08-05T19:03:03.759Z,25.20
2022-08-05T19:06:11.397Z,25.20
2022-08-05T19:08:21.867Z,25.10
2022-08-05T19:10:50.375Z,25.20
2022-08-05T19:13:18.405Z,25.10
2022-08-05T19:15:59.645Z,25.10
2022-08-05T19:18:28.861Z,25.00
2022-08-05T19:20:57.195Z,24.90
2022-08-05T19:24:06.839Z,24.90
2022-08-05T19:26:13.907Z,24.80
2022-08-05T19:28:43.274Z,24.80
2022-08-05T19:31:19.304Z,24.80
2022-08-05T19:33:56.325Z,24.80
2022-08-05T19:36:25.519Z,24.80
2022-08-05T19:38:55.170Z,24.80
2022-08-05T19:41:58.033Z,24.80
2022-08-05T19:44:18.499Z,24.80
2022-08-05T19:46:50.103Z,24.70
2022-08-05T19:49:18.490Z,24.70
2022-08-05T19:52:13.241Z,24.70
2022-08-05T19:54:35.742Z,24.70
2022-08-05T19:57:09.852Z,24.60
2022-08-05T19:59:56.561Z,24.60
2022-08-05T20:02:31.481Z,24.60
2022-08-05T20:05:00.315Z,24.60
2022-08-05T20:07:47.861Z,24.50
2022-08-05T20:10:16.925Z,24.50
2022-08-05T20:12:48.427Z,24.50
2022-08-05T20:15:23.179Z,24.50
2022-08-05T20:18:10.709Z,24.50
2022-08-05T20:20:56.714Z,24.40
2022-08-05T20:23:40.079Z,24.40
2022-08-05T20:26:16.625Z,24.30
2022-08-05T20:28:47.889Z,24.30
2022-08-05T20:31:16.606Z,24.30
2022-08-05T20:33:46.193Z,24.30
2022-08-05T20:36:16.483Z,24.20
2022-08-05T20:38:54.581Z,24.30
2022-08-05T20:41:43.805Z,24.20
2022-08-05T20:44:17.118Z,24.20
2022-08-05T20:46:46.237Z,24.20
2022-08-05T20:49:23.921Z,24.20
2022-08-05T20:51:53.373Z,24.20
2022-08-05T20:54:21.981Z,24.20
2022-08-05T20:56:49.937Z,24.20
2022-08-05T20:59:26.489Z,24.20
2022-08-05T21:01:57.992Z,24.20
2022-08-05T21:04:27.461Z,24.20
2022-08-05T21:06:55.919Z,24.20
2022-08-05T21:09:23.867Z,24.10
2022-08-05T21:12:07.229Z,24.10
2022-08-05T21:14:39.700Z,24.10
2022-08-05T21:17:07.778Z,24.10
2022-08-05T21:19:47.375Z,24.10
2022-08-05T21:22:18.453Z,24.10
2022-08-05T21:24:52.013Z,24.10
2022-08-05T21:27:25.247Z,24.20
2022-08-05T21:29:56.563Z,24.20
2022-08-05T21:32:27.577Z,24.20
2022-08-05T21:35:08.663Z,24.20
2022-08-05T21:37:52.707Z,24.10
2022-08-05T21:40:21.852Z,24.10
2022-08-05T21:42:52.055Z,24.10
2022-08-05T21:45:25.138Z,24.10
2022-08-05T21:48:09.605Z,24.10
2022-08-05T21:50:38.994Z,24.10
2022-08-05T21:53:16.258Z,24.10
2022-08-05T21:56:04.690Z,24.10
2022-08-05T21:58:32.725Z,24.10
2022-08-05T22:01:01.352Z,24.10
2022-08-05T22:03:52.659Z,24.00
2022-08-05T22:06:22.743Z,24.00
2022-08-05T22:08:52.117Z,23.90
2022-08-05T22:11:34.491Z,23.90
2022-08-05T22:14:19.870Z,23.80
2022-08-05T22:16:56.924Z,23.80
2022-08-05T22:20:03.220Z,23.80
2022-08-05T22:22:20.216Z,23.70
2022-08-05T22:25:21.137Z,23.80
2022-08-05T22:28:10.225Z,23.80
2022-08-05T22:30:43.955Z,23.80
2022-08-05T22:33:56.669Z,23.70
2022-08-05T22:36:14.514Z,23.70
2022-08-05T22:38:47.957Z,23.80
2022-08-05T22:42:04.446Z,23.70
2022-08-05T22:44:05.765Z,23.60
2022-08-05T22:46:33.712Z,23.60
2022-08-05T22:49:12.362Z,23.60
2022-08-05T22:52:07.215Z,23.60
2022-08-05T22:54:41.855Z,23.60
2022-08-05T22:57:16.793Z,23.50
2022-08-05T22:59:53.906Z,23.50
2022-08-05T23:02:29.663Z,23.50
2022-08-05T23:05:01.895Z,23.50
2022-08-05T23:07:32.975Z,23.50
2022-08-05T23:10:15.126Z,23.50
2022-08-05T23:12:44.044Z,23.50
2022-08-05T23:15:12.636Z,23.40
2022-08-05T23:18:00.800Z,23.40
2022-08-05T23:20:28.462Z,23.40
2022-08-05T23:22:58.496Z,23.40
2022-08-05T23:25:54.773Z,23.40
2022-08-05T23:28:17.247Z,23.40
2022-08-05T23:30:53.608Z,23.40
2022-08-05T23:33:26.329Z,23.40
2022-08-05T23:36:10.502Z,23.40
2022-08-05T23:38:38.646Z,23.40
2022-08-05T23:41:07.929Z,23.40
2022-08-05T23:44:03.665Z,23.40
2022-08-05T23:46:24.898Z,23.40
2022-08-05T23:49:00.678Z,23.40
2022-08-05T23:51:54.136Z,23.40
2022-08-05T23:54:25.271Z,23.30
2022-08-05T23:57:03.441Z,23.30
